createdAt,value
2017-05-16T00:01:41.297Z,3.92
2017-05-16T00:04:10.581Z,5.96
2017-05-16T00:06:39.593Z,4.54
2017-05-16T00:09:08.221Z,5.32
2017-05-16T00:11:37.149Z,3.02
2017-05-16T00:14:06.154Z,4.94
2017-05-16T00:16:34.795Z,4.60
2017-05-16T00:19:03.621Z,5.04
2017-05-16T00:21:32.259Z,4.26
2017-05-16T00:24:00.493Z,4.84
2017-05-16T00:26:29.856Z,3.74
2017-05-16T00:28:58.496Z,3.38
2017-05-16T00:31:27.133Z,4.18
2017-05-16T00:33:56.166Z,5.96
2017-05-16T00:36:24.797Z,4.46
2017-05-16T00:38:53.797Z,5.16
2017-05-16T00:41:22.914Z,5.36
2017-05-16T00:43:51.546Z,4.02
2017-05-16T00:46:20.181Z,4.62
2017-05-16T00:48:49.729Z,5.48
2017-05-16T00:51:17.973Z,4.50
2017-05-16T00:53:46.606Z,3.78
2017-05-16T00:56:15.281Z,3.72
2017-05-16T00:58:43.909Z,5.40
2017-05-16T01:01:12.547Z,5.10
2017-05-16T01:03:41.214Z,4.20
2017-05-16T01:06:10.195Z,6.96
2017-05-16T01:08:38.806Z,3.74
2017-05-16T01:11:07.555Z,3.84
2017-05-16T01:13:36.180Z,4.48
2017-05-16T01:16:05.186Z,4.82
2017-05-16T01:18:34.224Z,6.20
2017-05-16T01:21:02.857Z,4.52
2017-05-16T01:23:31.866Z,4.18
2017-05-16T01:26:00.534Z,7.48
2017-05-16T01:28:28.778Z,4.80
2017-05-16T01:30:57.409Z,5.20
2017-05-16T01:33:26.165Z,3.54
2017-05-16T01:35:54.398Z,4.20
2017-05-16T01:38:23.033Z,3.92
2017-05-16T01:40:51.381Z,3.90
2017-05-16T01:43:20.014Z,4.78
2017-05-16T01:45:48.650Z,3.88
2017-05-16T01:48:17.318Z,4.48
2017-05-16T01:50:45.949Z,3.76
2017-05-16T01:53:15.086Z,6.02
2017-05-16T01:55:43.736Z,6.96
2017-05-16T01:58:12.376Z,6.00
2017-05-16T02:00:41.006Z,7.06
2017-05-16T02:03:09.677Z,5.72
2017-05-16T02:05:38.316Z,5.52
2017-05-16T02:08:06.953Z,4.34
2017-05-16T02:10:35.890Z,6.10
2017-05-16T02:13:06.458Z,4.66
2017-05-16T02:15:35.367Z,7.06
2017-05-16T02:18:04.007Z,6.22
2017-05-16T02:20:32.648Z,4.10
2017-05-16T02:23:01.328Z,7.54
2017-05-16T02:25:29.570Z,5.02
2017-05-16T02:27:58.207Z,4.72
2017-05-16T02:30:27.232Z,5.24
2017-05-16T02:32:55.480Z,4.80
2017-05-16T02:35:24.107Z,4.50
2017-05-16T02:37:53.573Z,6.32
2017-05-16T02:40:22.219Z,5.28
2017-05-16T02:42:50.851Z,4.78
2017-05-16T02:45:19.902Z,6.06
2017-05-16T02:47:48.544Z,5.10
2017-05-16T02:50:17.186Z,8.36
2017-05-16T02:52:46.218Z,9.94
2017-05-16T02:55:15.549Z,6.20
2017-05-16T02:57:44.191Z,4.72
2017-05-16T03:00:13.235Z,5.24
2017-05-16T03:02:41.871Z,6.96
2017-05-16T03:05:10.878Z,6.78
2017-05-16T03:07:39.553Z,6.84
2017-05-16T03:10:08.191Z,7.60
2017-05-16T03:12:36.830Z,4.76
2017-05-16T03:15:05.518Z,8.04
2017-05-16T03:17:34.155Z,6.36
2017-05-16T03:20:02.798Z,5.40
2017-05-16T03:22:31.225Z,7.40
2017-05-16T03:24:59.853Z,6.76
2017-05-16T03:27:28.249Z,6.70
2017-05-16T03:29:56.929Z,4.80
2017-05-16T03:32:25.566Z,9.94
2017-05-16T03:34:54.537Z,6.10
2017-05-16T03:37:23.206Z,6.28
2017-05-16T03:39:51.845Z,7.40
2017-05-16T03:42:20.090Z,6.06
2017-05-16T03:44:49.119Z,8.16
2017-05-16T03:47:17.763Z,7.54
2017-05-16T03:49:46.767Z,6.86
2017-05-16T03:52:15.325Z,6.50
2017-05-16T03:54:43.963Z,6.92
2017-05-16T03:57:12.603Z,6.80
2017-05-16T03:59:40.878Z,7.44
2017-05-16T04:02:09.117Z,6.62
2017-05-16T04:04:37.755Z,8.52
2017-05-16T04:07:06.014Z,6.58
2017-05-16T04:09:34.255Z,9.72
2017-05-16T04:12:02.887Z,7.64
2017-05-16T04:14:31.451Z,6.86
2017-05-16T04:17:00.458Z,7.92
2017-05-16T04:19:29.098Z,8.66
2017-05-16T04:21:57.773Z,6.94
2017-05-16T04:24:26.415Z,6.36
2017-05-16T04:26:55.050Z,7.06
2017-05-16T04:29:24.070Z,6.58
2017-05-16T04:31:52.313Z,6.58
2017-05-16T04:34:20.951Z,7.36
2017-05-16T04:36:49.706Z,6.78
2017-05-16T04:39:18.715Z,6.80
2017-05-16T04:41:47.650Z,9.52
2017-05-16T04:44:16.645Z,8.00
2017-05-16T04:46:45.278Z,7.62
2017-05-16T04:49:13.914Z,6.78
2017-05-16T04:51:43.071Z,9.20
2017-05-16T04:54:11.313Z,9.92
2017-05-16T04:56:40.325Z,7.06
2017-05-16T04:59:09.081Z,8.74
2017-05-16T05:01:38.246Z,7.40
2017-05-16T05:04:06.886Z,7.04
2017-05-16T05:06:35.134Z,9.32
2017-05-16T05:09:05.054Z,7.24
2017-05-16T05:11:34.068Z,7.96
2017-05-16T05:14:02.768Z,17.58
2017-05-16T05:16:31.975Z,10.84
2017-05-16T05:19:00.623Z,19.94
2017-05-16T05:21:29.274Z,23.88
2017-05-16T05:23:58.332Z,12.58
2017-05-16T05:26:26.970Z,7.76
2017-05-16T05:28:55.987Z,18.82
2017-05-16T05:31:24.955Z,14.08
2017-05-16T05:33:53.598Z,13.46
2017-05-16T05:36:23.122Z,11.76
2017-05-16T05:38:52.437Z,8.68
2017-05-16T05:41:21.451Z,9.60
2017-05-16T05:43:50.089Z,8.26
2017-05-16T05:46:18.771Z,8.62
2017-05-16T05:48:47.497Z,9.32
2017-05-16T05:51:15.734Z,8.36
2017-05-16T05:53:44.586Z,8.16
2017-05-16T05:56:13.226Z,8.80
2017-05-16T05:58:42.241Z,9.52
2017-05-16T06:01:10.924Z,12.40
2017-05-16T06:03:39.573Z,8.66
2017-05-16T06:06:08.589Z,8.66
2017-05-16T06:08:37.246Z,8.44
2017-05-16T06:11:06.600Z,9.82
2017-05-16T06:13:35.252Z,14.90
2017-05-16T06:16:03.526Z,9.18
2017-05-16T06:18:32.289Z,11.68
2017-05-16T06:21:01.297Z,10.82
2017-05-16T06:23:29.998Z,14.30
2017-05-16T06:25:58.248Z,13.60
2017-05-16T06:28:26.951Z,10.10
2017-05-16T06:30:56.330Z,11.14
2017-05-16T06:33:25.348Z,9.82
2017-05-16T06:35:53.991Z,15.40
2017-05-16T06:38:22.268Z,10.54
2017-05-16T06:40:50.518Z,9.62
2017-05-16T06:43:19.165Z,8.62
2017-05-16T06:45:47.859Z,11.48
2017-05-16T06:48:16.197Z,13.80
2017-05-16T06:50:45.285Z,22.50
2017-05-16T06:53:13.588Z,11.72
2017-05-16T06:55:42.231Z,12.32
2017-05-16T06:58:10.879Z,11.58
2017-05-16T07:00:41.013Z,10.64
2017-05-16T07:03:09.705Z,11.40
2017-05-16T07:05:38.377Z,14.22
2017-05-16T07:08:07.082Z,12.24
2017-05-16T07:10:35.736Z,12.30
2017-05-16T07:13:04.644Z,11.06
2017-05-16T07:15:33.572Z,11.56
2017-05-16T07:18:02.278Z,11.62
2017-05-16T07:20:30.594Z,11.86
2017-05-16T07:22:59.283Z,11.96
2017-05-16T07:25:28.046Z,12.48
2017-05-16T07:27:57.635Z,11.66
2017-05-16T07:30:26.291Z,12.08
2017-05-16T07:32:54.939Z,15.42
2017-05-16T07:35:23.658Z,11.04
2017-05-16T07:37:52.458Z,11.36
2017-05-16T07:40:21.159Z,15.16
2017-05-16T07:42:49.832Z,13.54
2017-05-16T07:45:18.526Z,11.18
2017-05-16T07:47:47.203Z,10.40
2017-05-16T07:50:15.868Z,15.58
2017-05-16T07:52:44.582Z,12.90
2017-05-16T07:55:13.054Z,10.26
2017-05-16T07:57:41.785Z,11.56
2017-05-16T08:00:10.321Z,11.66
2017-05-16T08:02:38.973Z,12.04
2017-05-16T08:05:07.626Z,10.42
2017-05-16T08:07:36.291Z,12.30
2017-05-16T08:10:05.271Z,11.06
2017-05-16T08:12:34.830Z,12.32
2017-05-16T08:15:03.845Z,12.58
2017-05-16T08:17:32.551Z,13.22
2017-05-16T08:20:01.521Z,14.62
2017-05-16T08:22:30.216Z,14.04
2017-05-16T08:24:58.843Z,13.70
2017-05-16T08:27:27.499Z,12.78
2017-05-16T08:29:56.584Z,14.98
2017-05-16T08:32:25.218Z,15.04
2017-05-16T08:34:54.865Z,12.16
2017-05-16T08:37:23.537Z,12.76
2017-05-16T08:39:52.194Z,12.68
2017-05-16T08:42:21.369Z,13.72
2017-05-16T08:44:50.688Z,17.44
2017-05-16T08:47:19.904Z,15.66
2017-05-16T08:49:49.239Z,14.56
2017-05-16T08:52:17.906Z,13.02
2017-05-16T08:54:46.177Z,15.56
2017-05-16T08:57:15.168Z,16.98
2017-05-16T08:59:44.334Z,15.30
2017-05-16T09:02:13.285Z,16.08
2017-05-16T09:04:41.935Z,16.12
2017-05-16T09:07:10.946Z,14.64
2017-05-16T09:09:39.588Z,15.98
2017-05-16T09:12:08.236Z,16.64
2017-05-16T09:14:37.254Z,16.98
2017-05-16T09:17:05.520Z,18.36
2017-05-16T09:19:34.544Z,19.26
2017-05-16T09:22:03.411Z,17.62
2017-05-16T09:24:32.056Z,19.82
2017-05-16T09:27:00.707Z,17.90
2017-05-16T09:29:29.382Z,17.54
2017-05-16T09:31:57.635Z,20.92
2017-05-16T09:34:26.305Z,21.64
2017-05-16T09:36:55.453Z,19.88
2017-05-16T09:39:24.107Z,16.38
2017-05-16T09:41:53.242Z,19.10
2017-05-16T09:44:22.012Z,21.50
2017-05-16T09:46:50.676Z,22.56
2017-05-16T09:49:18.926Z,22.26
2017-05-16T09:51:48.067Z,18.98
2017-05-16T09:54:16.743Z,21.18
2017-05-16T09:56:45.431Z,22.02
2017-05-16T09:59:14.208Z,19.52
2017-05-16T10:01:42.859Z,19.54
2017-05-16T10:04:11.526Z,19.04
2017-05-16T10:06:39.953Z,18.12
2017-05-16T10:09:08.603Z,17.30
2017-05-16T10:11:38.392Z,21.86
2017-05-16T10:14:07.352Z,16.68
2017-05-16T10:16:36.008Z,20.40
2017-05-16T10:19:04.651Z,19.64
2017-05-16T10:21:33.871Z,19.90
2017-05-16T10:24:02.543Z,18.70
2017-05-16T10:26:31.565Z,20.04
2017-05-16T10:29:00.436Z,18.44
2017-05-16T10:31:29.087Z,21.90
2017-05-16T10:33:57.746Z,19.94
2017-05-16T10:36:26.632Z,18.82
2017-05-16T10:38:55.429Z,19.80
2017-05-16T10:41:24.283Z,17.24
2017-05-16T10:43:54.310Z,20.42
2017-05-16T10:46:22.565Z,19.04
2017-05-16T10:48:51.241Z,21.84
2017-05-16T10:51:19.815Z,17.46
2017-05-16T10:53:48.069Z,19.90
2017-05-16T10:56:16.719Z,19.30
2017-05-16T10:58:45.676Z,19.22
2017-05-16T11:01:14.325Z,18.12
2017-05-16T11:03:43.363Z,21.22
2017-05-16T11:06:12.027Z,21.00
2017-05-16T11:08:40.679Z,19.20
2017-05-16T11:11:09.332Z,19.94
2017-05-16T11:13:38.021Z,23.90
2017-05-16T11:16:06.665Z,23.46
2017-05-16T11:18:35.315Z,22.64
2017-05-16T11:21:04.009Z,19.80
2017-05-16T11:23:32.274Z,22.64
2017-05-16T11:26:01.440Z,22.74
2017-05-16T11:28:30.117Z,23.06
2017-05-16T11:30:58.787Z,26.46
2017-05-16T11:33:27.446Z,24.10
2017-05-16T11:35:56.302Z,31.90
2017-05-16T11:38:24.953Z,27.14
2017-05-16T11:40:54.855Z,24.96
2017-05-16T11:43:23.814Z,26.14
2017-05-16T11:45:52.476Z,24.66
2017-05-16T11:48:21.495Z,22.60
2017-05-16T11:50:50.175Z,23.88
2017-05-16T11:53:18.818Z,28.18
2017-05-16T11:55:47.091Z,25.14
2017-05-16T11:58:15.797Z,27.78
2017-05-16T12:00:44.813Z,22.34
2017-05-16T12:03:13.073Z,25.56
2017-05-16T12:05:42.125Z,27.38
2017-05-16T12:08:10.789Z,27.46
2017-05-16T12:10:39.449Z,31.12
2017-05-16T12:13:08.126Z,23.98
2017-05-16T12:15:36.774Z,27.86
2017-05-16T12:18:05.025Z,28.76
2017-05-16T12:20:33.967Z,22.48
2017-05-16T12:23:02.680Z,22.82
2017-05-16T12:25:31.558Z,25.84
2017-05-16T12:28:00.598Z,25.44
2017-05-16T12:30:29.278Z,22.50
2017-05-16T12:32:58.082Z,22.56
2017-05-16T12:35:26.890Z,24.10
2017-05-16T12:37:55.560Z,22.22
2017-05-16T12:40:24.808Z,24.90
2017-05-16T12:42:53.661Z,23.16
2017-05-16T12:45:21.915Z,31.52
2017-05-16T12:47:50.946Z,24.32
2017-05-16T12:50:19.734Z,24.48
2017-05-16T12:52:48.387Z,23.98
2017-05-16T12:55:17.421Z,22.14
2017-05-16T12:57:46.075Z,24.40
2017-05-16T13:00:14.331Z,25.36
2017-05-16T13:02:43.966Z,24.38
2017-05-16T13:05:12.942Z,28.20
2017-05-16T13:07:41.679Z,23.10
2017-05-16T13:10:10.660Z,24.26
2017-05-16T13:12:39.351Z,25.56
2017-05-16T13:15:08.003Z,27.64
2017-05-16T13:17:36.269Z,24.64
2017-05-16T13:20:04.972Z,27.06
2017-05-16T13:22:33.874Z,23.70
2017-05-16T13:25:02.540Z,27.36
2017-05-16T13:27:30.793Z,29.48
2017-05-16T13:29:59.441Z,23.78
2017-05-16T13:32:28.098Z,23.92
2017-05-16T13:34:56.955Z,23.78
2017-05-16T13:37:25.622Z,26.72
2017-05-16T13:39:54.269Z,28.14
2017-05-16T13:42:22.981Z,26.34
2017-05-16T13:44:52.464Z,24.88
2017-05-16T13:47:21.113Z,24.68
2017-05-16T13:49:50.064Z,24.54
2017-05-16T13:52:19.701Z,23.48
2017-05-16T13:54:47.987Z,29.72
2017-05-16T13:57:16.998Z,27.50
2017-05-16T13:59:46.105Z,23.42
2017-05-16T14:02:14.791Z,23.30
2017-05-16T14:04:43.818Z,24.92
2017-05-16T14:07:12.901Z,24.06
2017-05-16T14:09:41.546Z,26.52
2017-05-16T14:12:10.469Z,26.48
2017-05-16T14:14:38.748Z,26.06
2017-05-16T14:17:07.016Z,26.84
2017-05-16T14:19:35.317Z,24.76
2017-05-16T14:22:03.963Z,22.76
2017-05-16T14:24:32.233Z,22.38
2017-05-16T14:27:01.010Z,25.16
2017-05-16T14:29:29.974Z,26.28
2017-05-16T14:31:58.629Z,20.80
2017-05-16T14:34:26.907Z,23.08
2017-05-16T14:36:55.162Z,24.44
2017-05-16T14:39:23.828Z,24.18
2017-05-16T14:41:52.614Z,23.28
2017-05-16T14:44:21.616Z,22.34
2017-05-16T14:46:50.631Z,20.44
2017-05-16T14:49:19.316Z,21.24
2017-05-16T14:51:48.359Z,22.98
2017-05-16T14:54:17.021Z,25.78
2017-05-16T14:56:46.834Z,20.72
2017-05-16T14:59:15.500Z,23.00
2017-05-16T15:01:44.146Z,22.78
2017-05-16T15:04:13.209Z,25.24
2017-05-16T15:06:41.864Z,24.84
2017-05-16T15:09:10.124Z,21.64
2017-05-16T15:11:39.366Z,25.98
2017-05-16T15:14:08.020Z,22.92
2017-05-16T15:16:36.663Z,23.00
2017-05-16T15:19:05.461Z,24.82
2017-05-16T15:21:34.126Z,26.12
2017-05-16T15:24:03.158Z,21.10
2017-05-16T15:26:32.092Z,23.42
2017-05-16T15:29:00.741Z,24.46
2017-05-16T15:31:29.414Z,22.50
2017-05-16T15:33:58.304Z,22.68
2017-05-16T15:36:27.586Z,25.10
2017-05-16T15:38:57.023Z,20.72
2017-05-16T15:41:25.715Z,22.84
2017-05-16T15:43:54.373Z,20.92
2017-05-16T15:46:23.220Z,20.50
2017-05-16T15:48:51.718Z,19.96
2017-05-16T15:51:19.965Z,21.54
2017-05-16T15:53:50.052Z,21.56
2017-05-16T15:56:18.823Z,20.72
2017-05-16T15:58:47.464Z,21.56
2017-05-16T16:01:16.350Z,21.38
2017-05-16T16:03:45.425Z,21.12
2017-05-16T16:06:14.151Z,24.40
2017-05-16T16:08:42.540Z,18.84
2017-05-16T16:11:10.894Z,19.56
2017-05-16T16:13:39.171Z,21.06
2017-05-16T16:16:07.819Z,20.16
2017-05-16T16:18:36.194Z,24.36
2017-05-16T16:21:04.750Z,20.44
2017-05-16T16:23:33.390Z,19.30
2017-05-16T16:26:02.069Z,20.30
2017-05-16T16:28:30.867Z,20.46
2017-05-16T16:30:59.865Z,19.42
2017-05-16T16:33:28.660Z,19.34
2017-05-16T16:35:57.325Z,21.04
2017-05-16T16:38:26.605Z,21.90
2017-05-16T16:40:56.218Z,20.60
2017-05-16T16:43:25.230Z,23.18
2017-05-16T16:45:54.815Z,23.62
2017-05-16T16:48:24.433Z,21.84
2017-05-16T16:50:53.103Z,22.82
2017-05-16T16:53:21.767Z,21.26
2017-05-16T16:55:50.702Z,20.36
2017-05-16T16:58:19.365Z,20.32
2017-05-16T17:00:48.027Z,25.20
2017-05-16T17:03:17.353Z,19.72
2017-05-16T17:05:46.467Z,22.64
2017-05-16T17:08:14.710Z,21.82
2017-05-16T17:10:43.018Z,20.84
2017-05-16T17:13:11.290Z,22.58
2017-05-16T17:15:39.943Z,22.64
2017-05-16T17:18:08.318Z,20.74
2017-05-16T17:20:36.974Z,20.50
2017-05-16T17:23:05.625Z,21.96
2017-05-16T17:25:34.017Z,24.02
2017-05-16T17:28:02.692Z,20.56
2017-05-16T17:30:31.367Z,21.80
2017-05-16T17:32:59.816Z,18.70
2017-05-16T17:35:28.829Z,19.28
2017-05-16T17:37:57.837Z,22.50
2017-05-16T17:40:27.538Z,27.82
2017-05-16T17:42:56.169Z,24.68
2017-05-16T17:45:25.178Z,21.36
2017-05-16T17:47:54.193Z,21.98
2017-05-16T17:50:22.850Z,21.02
2017-05-16T17:52:51.121Z,22.80
2017-05-16T17:55:20.132Z,21.18
2017-05-16T17:57:48.802Z,20.14
2017-05-16T18:00:17.933Z,21.90
2017-05-16T18:02:46.635Z,19.54
2017-05-16T18:05:15.326Z,22.28
2017-05-16T18:07:45.203Z,20.38
2017-05-16T18:10:14.062Z,21.82
2017-05-16T18:12:42.733Z,25.64
2017-05-16T18:15:12.075Z,20.44
2017-05-16T18:17:40.825Z,21.82
2017-05-16T18:20:09.211Z,23.67
2017-05-16T18:22:38.757Z,21.78
2017-05-16T18:25:07.586Z,22.68
2017-05-16T18:27:37.436Z,24.68
2017-05-16T18:30:06.320Z,22.40
2017-05-16T18:32:35.021Z,22.58
2017-05-16T18:35:03.814Z,23.13
2017-05-16T18:37:33.140Z,23.90
2017-05-16T18:40:02.471Z,21.54
2017-05-16T18:42:31.871Z,21.80
2017-05-16T18:45:02.016Z,22.82
2017-05-16T18:47:31.181Z,21.54
2017-05-16T18:50:00.814Z,24.22
2017-05-16T18:52:29.852Z,21.20
2017-05-16T18:54:59.758Z,23.90
2017-05-16T18:57:28.555Z,23.30
2017-05-16T18:59:57.721Z,19.50
2017-05-16T19:02:27.696Z,21.04
2017-05-16T19:04:56.915Z,23.60
2017-05-16T19:07:25.695Z,22.12
2017-05-16T19:09:54.843Z,24.80
2017-05-16T19:12:24.662Z,21.32
2017-05-16T19:14:53.782Z,22.18
2017-05-16T19:17:24.590Z,21.46
2017-05-16T19:19:54.349Z,22.78
2017-05-16T19:22:24.299Z,21.54
2017-05-16T19:24:53.528Z,23.04
2017-05-16T19:27:22.989Z,23.40
2017-05-16T19:29:52.427Z,20.78
2017-05-16T19:32:22.985Z,22.08
2017-05-16T19:34:52.904Z,23.94
2017-05-16T19:37:22.126Z,22.84
2017-05-16T19:39:51.262Z,23.10
2017-05-16T19:42:20.950Z,21.98
2017-05-16T19:44:50.224Z,22.68
2017-05-16T19:47:19.714Z,22.80
2017-05-16T19:49:48.835Z,24.00
2017-05-16T19:52:18.200Z,21.50
2017-05-16T19:54:47.442Z,23.54
2017-05-16T19:57:17.438Z,25.82
2017-05-16T19:59:47.123Z,23.00
2017-05-16T20:02:16.748Z,23.36
2017-05-16T20:04:45.875Z,22.14
2017-05-16T20:07:14.714Z,22.28
2017-05-16T20:09:43.838Z,23.62
2017-05-16T20:12:12.878Z,23.66
2017-05-16T20:14:42.283Z,24.46
2017-05-16T20:17:11.308Z,24.24
2017-05-16T20:19:40.682Z,25.14
2017-05-16T20:22:10.072Z,25.44
2017-05-16T20:24:39.511Z,26.54
2017-05-16T20:27:08.599Z,23.16
2017-05-16T20:29:37.661Z,25.34
2017-05-16T20:32:06.616Z,26.30
2017-05-16T20:34:35.928Z,25.58
2017-05-16T20:37:04.899Z,25.30
2017-05-16T20:39:33.761Z,26.62
2017-05-16T20:42:02.432Z,23.56
2017-05-16T20:44:31.155Z,24.92
2017-05-16T20:47:00.329Z,23.90
2017-05-16T20:49:29.486Z,30.54
2017-05-16T20:51:59.168Z,28.22
2017-05-16T20:54:27.858Z,26.46
2017-05-16T20:56:56.616Z,26.70
2017-05-16T20:59:25.649Z,24.32
2017-05-16T21:01:54.318Z,26.70
2017-05-16T21:04:22.714Z,27.70
2017-05-16T21:06:50.975Z,30.94
2017-05-16T21:09:19.711Z,29.64
2017-05-16T21:11:48.222Z,26.10
2017-05-16T21:14:16.873Z,28.16
2017-05-16T21:16:45.543Z,28.12
2017-05-16T21:19:14.469Z,33.50
2017-05-16T21:21:43.509Z,32.48
2017-05-16T21:24:11.761Z,26.58
2017-05-16T21:26:40.447Z,26.44
2017-05-16T21:29:09.098Z,24.62
2017-05-16T21:31:38.154Z,31.22
2017-05-16T21:34:07.999Z,26.84
2017-05-16T21:36:37.051Z,25.42
2017-05-16T21:39:06.214Z,25.74
2017-05-16T21:41:34.892Z,23.84
2017-05-16T21:44:03.839Z,24.32
2017-05-16T21:46:32.491Z,27.16
2017-05-16T21:49:00.789Z,26.54
2017-05-16T21:51:29.453Z,29.92
2017-05-16T21:53:58.100Z,25.64
2017-05-16T21:56:26.770Z,24.70
2017-05-16T21:58:55.789Z,23.84
2017-05-16T22:01:24.798Z,26.32
2017-05-16T22:03:53.487Z,23.76
2017-05-16T22:06:22.148Z,25.50
2017-05-16T22:08:50.798Z,27.22
2017-05-16T22:11:19.922Z,25.46
2017-05-16T22:13:48.583Z,24.14
2017-05-16T22:16:16.843Z,23.88
2017-05-16T22:18:45.506Z,26.70
2017-05-16T22:21:14.461Z,29.92
2017-05-16T22:23:43.114Z,24.20
2017-05-16T22:26:12.177Z,23.50
2017-05-16T22:28:40.832Z,29.66
2017-05-16T22:31:09.486Z,28.72
2017-05-16T22:33:38.485Z,29.88
2017-05-16T22:36:07.157Z,25.08
2017-05-16T22:38:35.429Z,24.32
2017-05-16T22:41:04.336Z,25.22
2017-05-16T22:43:32.585Z,23.56
2017-05-16T22:46:01.603Z,23.54
2017-05-16T22:48:29.899Z,23.42
2017-05-16T22:50:58.546Z,23.66
2017-05-16T22:53:27.198Z,21.56
2017-05-16T22:55:55.880Z,26.64
2017-05-16T22:58:24.539Z,24.38
2017-05-16T23:00:53.206Z,26.36
2017-05-16T23:03:21.894Z,22.28
2017-05-16T23:05:50.172Z,23.00
2017-05-16T23:08:18.432Z,19.82
2017-05-16T23:10:47.272Z,20.04
2017-05-16T23:13:16.816Z,21.34
2017-05-16T23:15:45.453Z,22.64
2017-05-16T23:18:14.143Z,24.02
2017-05-16T23:20:42.805Z,21.28
2017-05-16T23:23:11.454Z,20.42
2017-05-16T23:25:40.431Z,21.56
2017-05-16T23:28:08.678Z,19.36
2017-05-16T23:30:37.332Z,24.50
2017-05-16T23:33:06.091Z,19.54
2017-05-16T23:35:34.741Z,19.10
2017-05-16T23:38:03.391Z,19.88
2017-05-16T23:40:32.077Z,19.62
2017-05-16T23:43:00.722Z,20.42
2017-05-16T23:45:29.383Z,18.64
2017-05-16T23:47:58.378Z,19.10
2017-05-16T23:50:26.648Z,23.54
2017-05-16T23:52:54.904Z,18.32
2017-05-16T23:55:23.672Z,22.42
2017-05-16T23:57:52.328Z,17.70
